LFPVLFBH

Guest
Details From LFPV - Velizy
To LFBH - La Rochelle Laleu
Flight Number -
Tags generated
Created
Modified
Stats Distance 208 nm / 385 km
Max Altitude 20,500 ft / 6,248 m
Waypoints 3
Social Downloads 0
Likes 0
Share VATSIM

Download

Looking for another format? Having issues loading an existing format? Contact us
Advertisement - Login to hide

Notes

Basic altitude profile: - Ascent Rate: 2500ft/min - Ascent Speed: 250kts - Cruise Altitude: 35000ft - Cruise Speed: 420kts - Descent Rate: 1500ft/min - Descent Speed: 250kts Options: - Use NATs: yes - Use PACOTS: yes - Use low airways: yes - Use high airways: yes

Route

LFPV NIMER LFBH

ID Type Via Altitude Latitude Longitude Leg Dist Tot Dist Heading (true) Name
O LFPV APT - 0 ft / 0 m 48.77437˚ 2.20161˚ - 0 nm - Velizy
NIMER FIX - 20,500 ft / 6,248 m 47.47250˚ 0.35694˚ 107 nm 107 nm 224° / 223° -
O LFBH APT - 0 ft / 0 m 46.17924˚ -1.19641˚ 100 nm 208 nm 220° / 219° La Rochelle Laleu

Altitude Profile

Advertisement - Login to hide

Weather


0- 5 10 15 20 25 30 35+ Temperature / ° C

Clouds and Precipitation
Forecast for 2018-05-21 12:00 UTC. Updated 36 minutes ago

Ground ~20,000 ft ~40,000 ft Winds

LFPV

Details ICAO LFPV
Name Velizy
Region France
Timezone Europe/Paris (UTC+2.0)
Stats Elevation 584 ft / 178 m (AMSL)
Location 48.774366° 2.201605°
Runways 1
Magnetic Variation 0.604° E

METAR

LFPV 210930Z AUTO 03004KT 340V120 9999 FEW027 18/11 Q1013 TEMPO BKN040CB

Decode

TAF

TAF AMD LFPV 210914Z 2109/2209 02005KT CAVOK TEMPO 2111/2121 5000 -SHRA BKN040CB PROB40 2113/2120 3000 TSRA TEMPO 2204/2206 4000 BR

Decode

Departure Runways

ID Width Length Bearing (true) Bearing (mag) Surface Threshold Offset Overrun Length
09 148 ft / 45 m 5,932 ft / 1,808 m 88.30° 87.70° Asphalt 0 ft / 0 m 436 ft / 133 m
27 148 ft / 45 m 5,932 ft / 1,808 m 268.31° 267.71° Asphalt 0 ft / 0 m 0 ft / 0 m

LFBH

Details ICAO LFBH (LRH)
Name La Rochelle Laleu
Region France
Timezone Europe/Paris (UTC+2.0)
Stats Elevation 74 ft / 23 m (AMSL)
Location 46.179245° -1.196410°
Runways 1
Magnetic Variation 0.245° W

METAR

LFBH 210930Z AUTO 07005KT 050V110 CAVOK 22/12 Q1011 TEMPO SCT040TCU

Decode

TAF

TAF AMD TAF AMD LFBH 210935Z 2109/2206 07007KT 9999 FEW070TCU PROB40 2112/2118 32010KT PROB40 TEMPO 2112/2118 -SHRA FEW050CB BKN060TCU TEMPO 2120/2206 NSC

Decode

Destination Runways

ID Width Length Bearing (true) Bearing (mag) Surface Threshold Offset Overrun Length
10 148 ft / 45 m 7,383 ft / 2,250 m 92.43° 92.68° Asphalt 1,033 ft / 315 m 0 ft / 0 m
28 148 ft / 45 m 7,383 ft / 2,250 m 272.45° 272.70° Asphalt 1,532 ft / 467 m 0 ft / 0 m

Approach Navaids

Runway Type Ident Frequency Range Bearing (true) Bearing (mag) Slope Elevation
28 Localiser RL 109.55 MHz 18 nm / 33 km 272.43° 272.68° - 72 ft / 22 m (AMSL)
28 Glidescope RL 109.55 MHz 10 nm / 19 km 272.44° 272.68° 3.10° 108 ft / 33 m (AMSL)
28 DME RL 109.55 MHz 18 nm / 33 km - - - 66 ft / 20 m (AMSL)